Time;durP1;ratioP1;P1;durP2;ratioP2;P2;SDS_P1;SDS_P2;PMS_P1;PMS_P2;Temp;Humidity;BMP_temperature;BMP_pressure;BME280_temperature;BME280_humidity;BME280_pressure;Samples;Min_cycle;Max_cycle;Signal;HPM_P1;HPM_P2
2023/04/24 00:00:09;;;;;;;2.40;1.75;;;11.00;99.90;;;;;;5007992;28;20408;-64
2023/04/24 00:02:39;;;;;;;2.28;2.10;;;11.00;99.90;;;;;;5002518;28;20449;-64
2023/04/24 00:05:06;;;;;;;3.58;2.15;;;11.00;99.90;;;;;;5009723;28;20483;-63
2023/04/24 00:07:32;;;;;;;2.20;2.00;;;11.00;99.90;;;;;;5008733;28;20492;-65
2023/04/24 00:09:58;;;;;;;1.73;1.58;;;10.90;99.90;;;;;;5009254;28;20100;-63
2023/04/24 00:12:25;;;;;;;2.28;1.92;;;10.90;99.90;;;;;;5009051;28;20124;-63
2023/04/24 00:14:51;;;;;;;2.10;1.90;;;10.90;99.90;;;;;;5008364;28;20045;-64
2023/04/24 00:17:19;;;;;;;2.20;2.00;;;10.90;99.90;;;;;;5000508;28;20064;-64
2023/04/24 00:19:46;;;;;;;2.30;2.08;;;10.90;99.90;;;;;;5008203;28;20103;-63
2023/04/24 00:22:13;;;;;;;3.45;1.95;;;10.90;99.90;;;;;;5009574;28;20033;-63
2023/04/24 00:24:39;;;;;;;4.45;1.92;;;10.90;99.90;;;;;;4990754;28;20093;-64
2023/04/24 00:27:04;;;;;;;1.13;0.82;;;10.90;99.90;;;;;;5008703;28;20050;-66
2023/04/24 00:29:30;;;;;;;0.60;0.60;;;10.80;99.90;;;;;;5008943;28;20038;-63
2023/04/24 00:31:56;;;;;;;0.28;0.22;;;10.60;99.90;;;;;;5008386;28;20124;-63
2023/04/24 00:34:22;;;;;;;0.63;0.30;;;10.50;99.90;;;;;;5008849;28;20465;-63
2023/04/24 00:36:51;;;;;;;0.20;0.20;;;10.30;99.90;;;;;;5007995;28;20057;-64
2023/04/24 00:39:19;;;;;;;0.22;0.10;;;10.20;99.90;;;;;;4998499;28;20092;-63
2023/04/24 00:41:45;;;;;;;0.35;0.10;;;10.10;99.90;;;;;;5008052;28;20045;-72
2023/04/24 00:44:11;;;;;;;0.10;0.10;;;10.10;99.90;;;;;;5001323;28;20117;-63
2023/04/24 00:46:37;;;;;;;0.55;0.20;;;10.10;99.90;;;;;;5002752;28;20044;-64
2023/04/24 00:49:05;;;;;;;0.35;0.20;;;10.10;99.90;;;;;;5007822;28;20057;-64
2023/04/24 00:51:32;;;;;;;0.20;0.20;;;10.00;99.90;;;;;;5008445;28;20046;-64
2023/04/24 00:53:58;;;;;;;2.00;0.20;;;10.00;99.90;;;;;;5007611;28;20050;-64
2023/04/24 00:56:24;;;;;;;0.98;0.20;;;10.00;99.90;;;;;;5008486;28;20057;-64
2023/04/24 00:58:50;;;;;;;0.20;0.10;;;10.00;99.90;;;;;;5006954;28;20038;-64
2023/04/24 01:01:18;;;;;;;2.50;0.25;;;9.90;99.90;;;;;;5007566;28;20046;-64
2023/04/24 01:03:44;;;;;;;0.45;0.10;;;9.90;99.90;;;;;;5007708;28;20088;-64
2023/04/24 01:06:10;;;;;;;1.17;0.20;;;9.90;99.90;;;;;;5007869;28;20121;-63
2023/04/24 01:08:36;;;;;;;0.40;0.20;;;9.90;99.90;;;;;;5008191;28;20124;-63
2023/04/24 01:11:04;;;;;;;0.95;0.20;;;9.90;99.90;;;;;;5006961;28;20046;-63
2023/04/24 01:13:31;;;;;;;0.50;0.30;;;9.80;99.90;;;;;;4990217;28;20160;-64
2023/04/24 01:15:57;;;;;;;0.45;0.13;;;9.80;99.90;;;;;;5007088;28;20053;-64
2023/04/24 01:18:23;;;;;;;0.43;0.20;;;9.80;99.90;;;;;;5008312;28;20189;-64
2023/04/24 01:20:52;;;;;;;0.85;0.30;;;9.80;99.90;;;;;;5007325;28;20124;-63
2023/04/24 01:23:19;;;;;;;1.63;0.30;;;9.90;99.90;;;;;;5007542;28;20470;-64
2023/04/24 01:25:45;;;;;;;0.30;0.20;;;9.80;99.90;;;;;;5008055;28;20081;-64
2023/04/24 01:28:11;;;;;;;0.82;0.25;;;9.90;99.90;;;;;;5007247;28;20046;-64
2023/04/24 01:30:37;;;;;;;2.60;0.40;;;9.80;99.90;;;;;;5008230;28;20050;-64
2023/04/24 01:33:02;;;;;;;13.82;1.50;;;9.70;99.90;;;;;;4995698;28;20049;-64
2023/04/24 01:35:29;;;;;;;2.58;0.38;;;9.90;99.90;;;;;;5007916;28;20128;-64
2023/04/24 01:37:54;;;;;;;0.47;0.30;;;9.80;99.90;;;;;;4999922;28;20037;-64
2023/04/24 01:40:20;;;;;;;2.20;0.50;;;9.90;99.90;;;;;;5007517;28;20046;-64
2023/04/24 01:42:46;;;;;;;0.40;0.40;;;9.90;99.90;;;;;;5007099;28;20057;-80
2023/04/24 01:45:15;;;;;;;0.30;0.30;;;9.90;99.90;;;;;;5007506;28;20046;-64
2023/04/24 01:47:41;;;;;;;0.30;0.30;;;9.90;99.90;;;;;;5007769;28;20073;-78
2023/04/24 01:50:08;;;;;;;0.28;0.28;;;9.90;99.90;;;;;;5006923;28;20400;-64
2023/04/24 01:52:35;;;;;;;1.45;0.50;;;9.90;99.90;;;;;;5007544;28;20952;-73
2023/04/24 01:55:00;;;;;;;0.38;0.38;;;9.80;99.90;;;;;;5006477;28;20046;-64
2023/04/24 01:57:27;;;;;;;0.30;0.30;;;9.90;99.90;;;;;;5007738;28;20068;-64
2023/04/24 01:59:52;;;;;;;0.40;0.40;;;9.90;99.90;;;;;;5006768;28;20049;-64
2023/04/24 02:02:18;;;;;;;0.40;0.40;;;9.80;99.90;;;;;;5006859;28;20042;-63
2023/04/24 02:04:44;;;;;;;0.75;0.47;;;9.90;99.90;;;;;;5006657;28;20042;-73
2023/04/24 02:07:10;;;;;;;0.43;0.43;;;9.90;99.90;;;;;;5006600;28;20120;-64
2023/04/24 02:09:36;;;;;;;0.65;0.65;;;9.90;99.90;;;;;;5005540;28;20233;-64
2023/04/24 02:12:01;;;;;;;1.52;1.42;;;9.90;99.90;;;;;;4996824;28;20452;-64
2023/04/24 02:14:27;;;;;;;0.65;0.65;;;9.90;99.90;;;;;;4999657;28;20112;-64
2023/04/24 02:16:54;;;;;;;0.47;0.47;;;9.90;99.90;;;;;;5005433;28;20053;-64
2023/04/24 02:19:19;;;;;;;0.50;0.50;;;9.90;99.90;;;;;;5006606;28;20244;-64
2023/04/24 02:21:45;;;;;;;0.50;0.50;;;9.90;99.90;;;;;;5006159;28;20052;-64
2023/04/24 02:24:11;;;;;;;0.60;0.60;;;9.90;99.90;;;;;;5006750;28;20125;-64
2023/04/24 02:26:36;;;;;;;0.63;0.63;;;9.90;99.90;;;;;;4991126;28;20535;-64
2023/04/24 02:29:02;;;;;;;1.38;0.80;;;9.90;99.90;;;;;;5006265;28;20435;-64
2023/04/24 02:31:28;;;;;;;0.60;0.60;;;9.90;99.90;;;;;;5006496;28;20373;-64
2023/04/24 02:33:53;;;;;;;1.38;0.70;;;9.90;99.90;;;;;;4994837;28;20073;-64
2023/04/24 02:36:19;;;;;;;0.60;0.60;;;9.80;99.90;;;;;;4995565;28;20108;-64
2023/04/24 02:38:45;;;;;;;0.80;0.80;;;9.90;99.90;;;;;;5005973;28;20373;-64
2023/04/24 02:41:11;;;;;;;0.80;0.80;;;9.90;99.90;;;;;;5006872;28;20038;-64
2023/04/24 02:43:36;;;;;;;2.15;0.50;;;9.90;99.90;;;;;;4992447;28;20068;-64
2023/04/24 02:46:02;;;;;;;0.80;0.80;;;9.80;99.90;;;;;;5005991;28;20056;-65
2023/04/24 02:48:28;;;;;;;1.40;0.88;;;9.90;99.90;;;;;;5005913;28;20038;-64
2023/04/24 02:50:54;;;;;;;1.40;0.82;;;9.80;99.90;;;;;;5006121;28;20041;-64
2023/04/24 02:53:19;;;;;;;0.82;0.82;;;9.80;99.90;;;;;;5006623;28;20042;-64
2023/04/24 02:55:45;;;;;;;1.95;1.00;;;9.80;99.90;;;;;;5003128;28;20049;-79
2023/04/24 02:58:12;;;;;;;0.90;0.90;;;9.80;99.90;;;;;;5006713;28;20477;-64
2023/04/24 03:00:39;;;;;;;6.63;1.30;;;9.80;99.90;;;;;;5005199;28;20077;-64
2023/04/24 03:03:05;;;;;;;1.52;1.00;;;9.80;99.90;;;;;;5006226;28;20573;-64
2023/04/24 03:05:31;;;;;;;1.17;1.17;;;9.80;99.90;;;;;;5005697;28;20042;-64
2023/04/24 03:07:57;;;;;;;1.33;1.25;;;9.90;99.90;;;;;;5005024;28;20073;-71
2023/04/24 03:10:22;;;;;;;1.17;1.17;;;9.80;99.90;;;;;;5006300;28;20161;-64
2023/04/24 03:12:49;;;;;;;1.20;1.20;;;9.90;99.90;;;;;;4989941;28;20048;-64
2023/04/24 03:15:14;;;;;;;1.60;1.50;;;9.90;99.90;;;;;;5006756;28;20503;-64
2023/04/24 03:17:40;;;;;;;1.50;1.40;;;9.90;99.90;;;;;;5003538;28;20141;-64
2023/04/24 03:20:08;;;;;;;1.73;1.73;;;9.90;99.90;;;;;;5005449;28;20104;-64
2023/04/24 03:22:34;;;;;;;2.92;1.63;;;9.90;99.90;;;;;;5004390;28;20041;-64
2023/04/24 03:25:00;;;;;;;1.70;1.70;;;10.00;99.90;;;;;;5004550;28;20050;-64
2023/04/24 03:27:25;;;;;;;2.40;1.88;;;10.00;99.90;;;;;;5005118;28;20058;-65
2023/04/24 03:29:54;;;;;;;3.47;1.70;;;10.00;99.90;;;;;;5004131;28;20112;-65
2023/04/24 03:32:22;;;;;;;1.45;1.35;;;10.00;99.90;;;;;;5005236;28;20042;-64
2023/04/24 03:34:48;;;;;;;1.83;1.67;;;10.00;99.90;;;;;;5006754;28;20053;-66
2023/04/24 03:37:14;;;;;;;3.33;1.40;;;10.00;99.90;;;;;;5008957;28;20404;-64
2023/04/24 03:39:40;;;;;;;1.10;1.10;;;10.00;99.90;;;;;;5007851;28;20046;-64
2023/04/24 03:42:05;;;;;;;2.72;1.40;;;10.00;99.90;;;;;;5008099;28;20649;-65
2023/04/24 03:44:31;;;;;;;2.45;1.35;;;9.90;99.90;;;;;;5006862;28;20386;-73
2023/04/24 03:46:58;;;;;;;3.35;1.35;;;10.00;99.90;;;;;;5007880;28;20100;-65
2023/04/24 03:49:24;;;;;;;1.58;1.50;;;9.90;99.90;;;;;;5008998;28;20412;-64
2023/04/24 03:51:50;;;;;;;2.70;1.20;;;9.90;99.90;;;;;;5006934;28;20034;-64
2023/04/24 03:54:16;;;;;;;1.40;1.40;;;9.80;99.90;;;;;;5008029;28;20132;-64
2023/04/24 03:56:42;;;;;;;0.95;0.95;;;9.80;99.90;;;;;;5005709;28;20137;-64
2023/04/24 03:59:07;;;;;;;1.30;1.30;;;9.80;99.90;;;;;;5008850;28;20531;-64
2023/04/24 04:01:36;;;;;;;1.40;1.30;;;9.80;99.90;;;;;;5003447;28;20049;-65
2023/04/24 04:04:06;;;;;;;1.55;1.55;;;9.70;99.90;;;;;;4979456;28;20081;-64
2023/04/24 04:06:32;;;;;;;1.85;1.75;;;9.70;99.90;;;;;;5007842;28;20049;-65
2023/04/24 04:08:58;;;;;;;1.10;1.10;;;9.70;99.90;;;;;;5005590;28;20408;-65
2023/04/24 04:11:24;;;;;;;1.13;1.00;;;9.70;99.90;;;;;;4987605;28;20550;-64
2023/04/24 04:13:50;;;;;;;1.00;1.00;;;9.70;99.90;;;;;;5006391;28;20081;-64
2023/04/24 04:16:16;;;;;;;1.10;1.10;;;9.60;99.90;;;;;;5006699;28;20053;-65
2023/04/24 04:18:43;;;;;;;1.10;1.08;;;9.60;99.90;;;;;;4955701;28;1489334;-69
2023/04/24 04:21:08;;;;;;;1.02;1.02;;;9.70;99.90;;;;;;5007276;28;20084;-64
2023/04/24 04:23:34;;;;;;;1.33;0.95;;;9.60;99.90;;;;;;4985991;28;20041;-64
2023/04/24 04:26:00;;;;;;;1.05;1.05;;;9.60;99.90;;;;;;5008424;28;20397;-64
2023/04/24 04:28:26;;;;;;;2.05;1.30;;;9.60;99.90;;;;;;5007879;28;20467;-64
2023/04/24 04:30:53;;;;;;;1.40;1.30;;;9.60;99.90;;;;;;5007468;28;20041;-65
2023/04/24 04:33:22;;;;;;;2.33;1.15;;;9.60;99.90;;;;;;5008369;28;20053;-64
2023/04/24 04:35:49;;;;;;;2.90;1.30;;;9.60;99.90;;;;;;5006760;28;20049;-64
2023/04/24 04:38:16;;;;;;;1.05;1.05;;;9.60;99.90;;;;;;5008757;28;20440;-64
2023/04/24 04:40:42;;;;;;;1.83;1.50;;;9.60;99.90;;;;;;5008577;28;20046;-69
2023/04/24 04:43:09;;;;;;;1.60;1.50;;;9.60;99.90;;;;;;5007556;28;20049;-64
2023/04/24 04:45:35;;;;;;;1.70;1.60;;;9.60;99.90;;;;;;4995325;28;20054;-64
2023/04/24 04:48:02;;;;;;;4.07;1.55;;;9.60;99.90;;;;;;5006054;28;20420;-64
2023/04/24 04:50:27;;;;;;;1.45;1.38;;;9.60;99.90;;;;;;5009339;28;20062;-64
2023/04/24 04:52:53;;;;;;;2.78;1.90;;;9.60;99.90;;;;;;5006675;28;20519;-65
2023/04/24 04:55:22;;;;;;;8.45;1.88;;;9.60;99.90;;;;;;5008514;28;20103;-64
2023/04/24 04:57:47;;;;;;;2.20;1.52;;;9.60;99.90;;;;;;5008031;28;20044;-64
2023/04/24 05:00:14;;;;;;;1.35;1.35;;;9.60;99.90;;;;;;5008075;28;20552;-64
2023/04/24 05:02:40;;;;;;;2.00;1.90;;;9.50;99.90;;;;;;5008101;28;20092;-64
2023/04/24 05:05:07;;;;;;;2.17;2.08;;;9.60;99.90;;;;;;5007366;28;20049;-64
2023/04/24 05:07:32;;;;;;;4.88;1.80;;;9.50;99.90;;;;;;5004763;28;20050;-64
2023/04/24 05:09:58;;;;;;;4.10;2.00;;;9.60;99.90;;;;;;5006782;28;20055;-64
2023/04/24 05:12:24;;;;;;;2.10;2.00;;;9.60;99.90;;;;;;5008511;28;20127;-65
2023/04/24 05:14:50;;;;;;;4.43;2.13;;;9.60;99.90;;;;;;4994023;28;20501;-64
2023/04/24 05:17:16;;;;;;;2.30;2.00;;;9.50;99.90;;;;;;5007507;28;20097;-64
2023/04/24 05:19:42;;;;;;;2.20;1.70;;;9.60;99.90;;;;;;5007508;28;20046;-82
2023/04/24 05:22:09;;;;;;;1.70;1.60;;;9.60;99.90;;;;;;5007660;28;20172;-64
2023/04/24 05:24:35;;;;;;;1.50;1.50;;;9.60;99.90;;;;;;5008032;28;20049;-64
2023/04/24 05:27:04;;;;;;;1.33;1.33;;;9.50;99.90;;;;;;5006502;28;20062;-64
2023/04/24 05:29:31;;;;;;;1.70;1.60;;;9.60;99.90;;;;;;5008284;28;20034;-64
2023/04/24 05:31:57;;;;;;;2.13;1.70;;;9.60;99.90;;;;;;5006646;28;20116;-64
2023/04/24 05:34:23;;;;;;;1.10;1.10;;;9.60;99.90;;;;;;5007408;28;20044;-64
2023/04/24 05:36:50;;;;;;;1.55;1.50;;;9.60;99.90;;;;;;5002853;28;20038;-64
2023/04/24 05:39:16;;;;;;;1.70;1.23;;;9.60;99.90;;;;;;4989468;28;20064;-64
2023/04/24 05:41:42;;;;;;;2.30;1.50;;;9.60;99.90;;;;;;5007580;28;20349;-64
2023/04/24 05:44:08;;;;;;;1.20;1.20;;;9.60;99.90;;;;;;5008415;28;20556;-64
2023/04/24 05:46:34;;;;;;;1.17;1.10;;;9.60;99.90;;;;;;5007783;28;20141;-63
2023/04/24 05:49:00;;;;;;;3.60;1.20;;;9.60;99.90;;;;;;5006338;28;20050;-63
2023/04/24 05:51:25;;;;;;;1.20;1.10;;;9.60;99.90;;;;;;4989788;28;20068;-64
2023/04/24 05:53:51;;;;;;;1.17;1.17;;;9.70;99.90;;;;;;5006672;28;20046;-63
2023/04/24 05:56:18;;;;;;;0.90;0.90;;;9.70;99.90;;;;;;5006041;28;20057;-63
2023/04/24 05:58:45;;;;;;;0.85;0.85;;;9.70;99.90;;;;;;4989356;28;20125;-63
2023/04/24 06:01:11;;;;;;;1.92;0.98;;;9.70;99.90;;;;;;5006805;28;20085;-64
2023/04/24 06:03:39;;;;;;;0.70;0.70;;;9.70;99.90;;;;;;5007514;28;20053;-64
2023/04/24 06:06:06;;;;;;;0.63;0.43;;;9.70;99.90;;;;;;5005896;28;20096;-63
2023/04/24 06:08:32;;;;;;;0.63;0.50;;;9.70;99.90;;;;;;5007618;28;20789;-64
2023/04/24 06:10:58;;;;;;;0.90;0.50;;;9.70;99.90;;;;;;5006087;28;20056;-64
2023/04/24 06:13:24;;;;;;;0.60;0.60;;;9.70;99.90;;;;;;4995185;28;20088;-78
2023/04/24 06:15:51;;;;;;;0.50;0.50;;;9.70;99.90;;;;;;5006237;28;20394;-63
2023/04/24 06:18:17;;;;;;;0.80;0.80;;;9.70;99.90;;;;;;5005089;28;20500;-63
2023/04/24 06:20:43;;;;;;;0.60;0.60;;;9.70;99.90;;;;;;5007396;28;20388;-63
2023/04/24 06:23:08;;;;;;;0.52;0.50;;;9.70;99.90;;;;;;5005004;28;20037;-63
2023/04/24 06:25:34;;;;;;;0.52;0.47;;;9.70;99.90;;;;;;5007493;28;20111;-64
2023/04/24 06:28:01;;;;;;;0.45;0.45;;;9.80;99.90;;;;;;5004926;28;20052;-64
2023/04/24 06:30:28;;;;;;;0.50;0.50;;;9.70;99.90;;;;;;5006722;28;20404;-64
2023/04/24 06:32:53;;;;;;;0.50;0.50;;;9.70;99.90;;;;;;5005953;28;20114;-64
2023/04/24 06:35:19;;;;;;;0.85;0.60;;;9.80;99.90;;;;;;5006301;28;20455;-64
2023/04/24 06:37:46;;;;;;;2.60;0.80;;;9.80;99.90;;;;;;4986693;28;20073;-63
2023/04/24 06:40:12;;;;;;;1.15;0.70;;;9.90;99.90;;;;;;5005164;28;20096;-63
2023/04/24 06:42:38;;;;;;;0.70;0.70;;;9.80;99.90;;;;;;5007189;28;20120;-63
2023/04/24 06:45:04;;;;;;;0.80;0.80;;;9.90;99.90;;;;;;5005348;28;20538;-83
2023/04/24 06:47:30;;;;;;;0.93;0.73;;;9.90;99.90;;;;;;4989685;28;20058;-67
2023/04/24 06:49:56;;;;;;;2.35;1.05;;;9.90;99.90;;;;;;5005070;28;20100;-63
2023/04/24 06:52:22;;;;;;;1.00;0.90;;;9.90;99.90;;;;;;5006547;28;20061;-63
2023/04/24 06:54:48;;;;;;;0.90;0.90;;;9.90;99.90;;;;;;4972021;28;20049;-64
2023/04/24 06:57:13;;;;;;;0.90;0.90;;;9.90;99.90;;;;;;5005440;28;20524;-63
2023/04/24 06:59:39;;;;;;;0.75;0.75;;;9.90;99.90;;;;;;5002415;28;20045;-64
2023/04/24 07:02:05;;;;;;;3.80;0.73;;;9.90;99.90;;;;;;5004259;28;20096;-64
2023/04/24 07:04:31;;;;;;;0.88;0.88;;;10.00;99.90;;;;;;5006450;28;20512;-64
2023/04/24 07:06:57;;;;;;;0.90;0.90;;;10.00;99.90;;;;;;5004306;28;20046;-64
2023/04/24 07:09:25;;;;;;;0.88;0.88;;;10.00;99.90;;;;;;5005520;28;20049;-63
2023/04/24 07:11:51;;;;;;;0.70;0.70;;;10.00;99.90;;;;;;5006086;28;20409;-63
2023/04/24 07:14:17;;;;;;;1.20;0.80;;;10.00;99.90;;;;;;5005488;28;20120;-63
2023/04/24 07:16:43;;;;;;;1.08;0.88;;;10.00;99.90;;;;;;5006031;28;20516;-63
2023/04/24 07:19:09;;;;;;;0.80;0.80;;;10.00;99.90;;;;;;5004419;28;20048;-63
2023/04/24 07:21:35;;;;;;;0.82;0.82;;;10.00;99.90;;;;;;5006635;28;20428;-63
2023/04/24 07:24:01;;;;;;;0.95;0.93;;;10.00;99.90;;;;;;5003116;28;20056;-63
2023/04/24 07:26:29;;;;;;;0.80;0.80;;;10.00;99.90;;;;;;5004835;28;20500;-64
2023/04/24 07:28:55;;;;;;;1.30;1.20;;;10.00;99.90;;;;;;5003859;28;20637;-64
2023/04/24 07:31:21;;;;;;;1.60;1.10;;;10.10;99.90;;;;;;5004004;28;20053;-63
2023/04/24 07:33:47;;;;;;;1.67;1.58;;;10.10;99.90;;;;;;4985444;28;20499;-64
2023/04/24 07:36:16;;;;;;;4.00;1.60;;;10.20;99.90;;;;;;5004394;28;20085;-64
2023/04/24 07:38:46;;;;;;;3.88;1.73;;;10.20;99.90;;;;;;5005820;28;20045;-64
2023/04/24 07:41:13;;;;;;;2.03;1.73;;;10.20;99.90;;;;;;5004810;28;20046;-64
2023/04/24 07:43:39;;;;;;;4.10;2.03;;;10.20;99.90;;;;;;4993044;28;20439;-64
2023/04/24 07:46:05;;;;;;;3.78;2.58;;;10.20;99.90;;;;;;4987168;28;20045;-64
2023/04/24 07:48:31;;;;;;;3.63;1.60;;;10.20;99.90;;;;;;5005889;28;20161;-64
2023/04/24 07:50:56;;;;;;;3.08;1.35;;;10.10;99.90;;;;;;5005326;28;20156;-64
2023/04/24 07:53:22;;;;;;;1.73;0.90;;;10.10;99.90;;;;;;5004472;28;20042;-64
2023/04/24 07:55:48;;;;;;;2.90;0.82;;;10.10;99.90;;;;;;5005806;28;20050;-66
2023/04/24 07:58:14;;;;;;;2.03;0.80;;;10.10;99.90;;;;;;5004003;28;20073;-64
2023/04/24 08:00:39;;;;;;;1.20;0.75;;;10.10;99.90;;;;;;5005607;28;20030;-64
2023/04/24 08:03:05;;;;;;;3.55;0.60;;;10.20;99.90;;;;;;5003870;28;20062;-65
2023/04/24 08:05:31;;;;;;;5.00;0.55;;;10.10;99.90;;;;;;4988056;28;20045;-64
2023/04/24 08:07:57;;;;;;;1.98;0.50;;;10.10;99.90;;;;;;5004750;28;20080;-65
2023/04/24 08:10:23;;;;;;;2.60;0.80;;;10.10;99.90;;;;;;4987758;28;20049;-65
2023/04/24 08:12:49;;;;;;;1.73;0.60;;;10.10;99.90;;;;;;5005331;28;20535;-64
2023/04/24 08:15:14;;;;;;;2.47;0.73;;;10.20;99.90;;;;;;5004340;28;20073;-64
2023/04/24 08:17:40;;;;;;;4.05;0.88;;;10.20;99.90;;;;;;5005149;28;20069;-64
2023/04/24 08:20:13;;;;;;;4.95;1.30;;;10.20;99.90;;;;;;4998270;28;20368;-64
2023/04/24 08:22:40;;;;;;;7.05;1.55;;;10.20;99.90;;;;;;5009952;28;20054;-64
2023/04/24 08:25:06;;;;;;;8.65;2.35;;;10.10;99.90;;;;;;5009360;28;20064;-64
2023/04/24 08:27:36;;;;;;;6.25;1.23;;;10.10;99.90;;;;;;5009341;28;20141;-64
2023/04/24 08:30:06;;;;;;;10.10;1.50;;;10.00;99.90;;;;;;4996049;28;20136;-64
2023/04/24 08:32:32;;;;;;;5.85;1.60;;;10.00;99.90;;;;;;4974668;28;20088;-64
2023/04/24 08:34:59;;;;;;;3.55;1.70;;;9.90;99.90;;;;;;5008818;28;20073;-64
2023/04/24 08:37:26;;;;;;;2.88;1.40;;;9.80;99.90;;;;;;5007114;28;20467;-64
2023/04/24 08:39:52;;;;;;;3.45;1.20;;;9.80;99.90;;;;;;5009024;28;20046;-64
2023/04/24 08:42:19;;;;;;;5.65;1.60;;;9.70;99.90;;;;;;5001076;28;20129;-65
2023/04/24 08:44:45;;;;;;;5.43;1.20;;;9.60;99.90;;;;;;5008664;28;20493;-64
2023/04/24 08:47:12;;;;;;;3.58;2.00;;;9.60;99.90;;;;;;5008355;28;20050;-65
2023/04/24 08:49:38;;;;;;;4.88;2.80;;;9.60;99.90;;;;;;5006985;28;20050;-64
2023/04/24 08:52:05;;;;;;;16.35;3.22;;;9.60;99.90;;;;;;5008573;28;20381;-64
2023/04/24 08:54:33;;;;;;;21.98;3.85;;;9.60;99.90;;;;;;5007711;28;20057;-65
2023/04/24 08:57:01;;;;;;;7.68;2.85;;;9.60;99.90;;;;;;5005454;28;20389;-64
2023/04/24 08:59:31;;;;;;;8.00;4.03;;;9.50;99.90;;;;;;5006625;28;20042;-73
2023/04/24 09:01:57;;;;;;;14.98;4.07;;;9.50;99.90;;;;;;5005434;28;20042;-65
2023/04/24 09:04:24;;;;;;;10.77;4.80;;;9.60;99.90;;;;;;5006900;28;20073;-65
2023/04/24 09:06:58;;;;;;;10.93;5.55;;;9.50;99.90;;;;;;5007491;28;20131;-64
2023/04/24 09:09:25;;;;;;;13.20;5.72;;;9.50;99.90;;;;;;4990317;28;20116;-65
2023/04/24 09:11:54;;;;;;;12.02;5.78;;;9.50;99.90;;;;;;5006570;28;20050;-65
2023/04/24 09:14:20;;;;;;;9.63;5.57;;;9.40;99.90;;;;;;5007485;28;20148;-64
2023/04/24 09:16:47;;;;;;;8.82;5.18;;;9.40;99.90;;;;;;4988506;28;20068;-64
2023/04/24 09:19:13;;;;;;;10.10;6.25;;;9.40;99.90;;;;;;5007317;28;20046;-64
2023/04/24 09:21:40;;;;;;;20.63;8.82;;;9.40;99.90;;;;;;5001437;28;20393;-64
2023/04/24 09:24:07;;;;;;;21.05;10.35;;;9.40;99.90;;;;;;5007069;28;20049;-65
2023/04/24 09:26:36;;;;;;;19.45;10.23;;;9.40;99.90;;;;;;5007302;28;20400;-65
2023/04/24 09:29:03;;;;;;;16.77;10.63;;;9.40;99.90;;;;;;5005937;28;20407;-64
2023/04/24 09:31:29;;;;;;;16.42;10.45;;;9.50;99.90;;;;;;5004913;28;20128;-65
2023/04/24 09:34:00;;;;;;;26.52;12.57;;;9.40;99.90;;;;;;4970719;28;20262;-65
2023/04/24 09:36:36;;;;;;;27.10;12.35;;;9.40;99.90;;;;;;5005331;28;20503;-64
2023/04/24 09:39:05;;;;;;;41.80;15.38;;;9.30;99.90;;;;;;5006232;28;20052;-65
2023/04/24 09:41:32;;;;;;;31.05;12.98;;;9.30;99.90;;;;;;5006132;28;20045;-64
2023/04/24 09:44:15;;;;;;;23.80;10.68;;;9.20;99.90;;;;;;5007627;28;20068;-64
2023/04/24 09:46:42;;;;;;;29.70;15.30;;;9.20;99.90;;;;;;4972178;28;20503;-64
2023/04/24 09:49:21;;;;;;;30.45;13.43;;;9.10;99.90;;;;;;5007845;28;20041;-68
2023/04/24 09:51:47;;;;;;;31.67;12.23;;;9.10;99.90;;;;;;5006843;28;20513;-65
2023/04/24 09:54:20;;;;;;;21.85;11.38;;;9.10;99.90;;;;;;5006631;28;20454;-64
2023/04/24 09:56:49;;;;;;;25.70;11.82;;;9.10;99.90;;;;;;5007034;28;20065;-64
2023/04/24 09:59:16;;;;;;;23.15;12.43;;;9.10;99.90;;;;;;5005888;28;20037;-65
2023/04/24 10:01:44;;;;;;;24.13;12.98;;;9.10;99.90;;;;;;5006993;28;20515;-65
2023/04/24 10:04:36;;;;;;;15.20;10.15;;;9.10;99.90;;;;;;4988729;28;20488;-65
2023/04/24 10:07:06;;;;;;;14.30;8.52;;;8.90;99.90;;;;;;5002939;28;20567;-64
2023/04/24 10:09:32;;;;;;;18.95;10.95;;;9.00;99.90;;;;;;5006588;28;20056;-64
2023/04/24 10:11:59;;;;;;;18.80;8.20;;;9.00;99.90;;;;;;5006279;28;20038;-64
2023/04/24 10:14:25;;;;;;;21.27;10.60;;;9.00;99.90;;;;;;5006957;28;20045;-64
2023/04/24 10:16:53;;;;;;;23.35;9.73;;;9.00;99.90;;;;;;5004617;28;20038;-64
2023/04/24 10:19:19;;;;;;;17.25;9.23;;;9.00;99.90;;;;;;5004298;28;20538;-65
2023/04/24 10:21:46;;;;;;;17.55;7.88;;;8.90;99.90;;;;;;5003831;28;20046;-76
2023/04/24 10:24:14;;;;;;;15.82;8.30;;;8.90;99.90;;;;;;5004286;28;20046;-65
2023/04/24 10:26:40;;;;;;;16.83;7.45;;;8.90;99.90;;;;;;5003300;28;20038;-64
2023/04/24 10:29:09;;;;;;;18.52;8.90;;;8.90;99.90;;;;;;5003758;28;20037;-64
2023/04/24 10:31:36;;;;;;;20.40;7.85;;;8.90;99.90;;;;;;5003721;28;20049;-67
2023/04/24 10:34:03;;;;;;;21.08;8.48;;;9.00;99.90;;;;;;5005317;28;20046;-64
2023/04/24 10:36:32;;;;;;;17.85;7.20;;;9.00;99.90;;;;;;5006224;28;20069;-64
2023/04/24 10:39:00;;;;;;;27.63;8.13;;;9.00;99.90;;;;;;5005470;28;20134;-64
2023/04/24 10:41:26;;;;;;;17.52;6.20;;;9.00;99.90;;;;;;5006330;28;20049;-65
2023/04/24 10:44:13;;;;;;;19.80;6.03;;;8.90;99.90;;;;;;5006206;28;20377;-75
2023/04/24 10:46:43;;;;;;;17.50;5.70;;;8.90;99.90;;;;;;5005472;28;20045;-65
2023/04/24 10:49:08;;;;;;;14.40;6.03;;;8.90;99.90;;;;;;5006947;28;20050;-64
2023/04/24 10:51:50;;;;;;;20.55;6.57;;;8.90;99.90;;;;;;4987071;28;20543;-64
2023/04/24 10:54:27;;;;;;;16.48;4.93;;;8.90;99.90;;;;;;5006974;28;20078;-65
2023/04/24 10:57:13;;;;;;;18.98;4.82;;;8.90;99.90;;;;;;5004466;28;20071;-65
2023/04/24 10:59:39;;;;;;;22.73;5.03;;;8.90;99.90;;;;;;4987862;28;20485;-65
2023/04/24 11:02:08;;;;;;;21.77;5.65;;;9.00;99.90;;;;;;5005710;28;20049;-65
2023/04/24 11:04:35;;;;;;;16.33;5.57;;;9.00;99.90;;;;;;4987429;28;20613;-64
2023/04/24 11:07:02;;;;;;;15.85;5.15;;;9.10;99.90;;;;;;5006541;28;20046;-66
2023/04/24 11:09:29;;;;;;;14.57;5.22;;;9.20;99.90;;;;;;5005085;28;20037;-64
2023/04/24 11:12:13;;;;;;;13.82;4.70;;;9.20;99.90;;;;;;5005429;28;20053;-75
2023/04/24 11:14:57;;;;;;;12.98;4.13;;;9.30;99.90;;;;;;5005467;28;20076;-64
2023/04/24 11:17:37;;;;;;;15.30;5.28;;;9.30;99.90;;;;;;5004446;28;20529;-64
2023/04/24 11:20:06;;;;;;;12.70;3.88;;;9.40;99.90;;;;;;5006358;28;20092;-65
2023/04/24 11:22:37;;;;;;;17.35;4.57;;;9.40;99.90;;;;;;4999357;28;20041;-65
2023/04/24 11:25:07;;;;;;;10.60;3.00;;;9.40;99.90;;;;;;5006185;28;20045;-65
2023/04/24 11:27:40;;;;;;;12.68;3.72;;;9.30;99.90;;;;;;5005371;28;20037;-65
2023/04/24 11:30:06;;;;;;;15.95;4.10;;;9.20;99.90;;;;;;5003924;28;20073;-65
2023/04/24 11:32:42;;;;;;;9.90;3.53;;;9.10;99.90;;;;;;5005183;28;20038;-65
2023/04/24 11:35:18;;;;;;;10.50;3.72;;;9.30;99.90;;;;;;5004408;28;20045;-65
2023/04/24 11:37:47;;;;;;;11.73;3.75;;;9.30;99.90;;;;;;5004268;28;20061;-65
2023/04/24 11:40:17;;;;;;;13.05;3.47;;;9.30;99.90;;;;;;5001735;28;20104;-65
2023/04/24 11:42:43;;;;;;;;;;;9.30;99.90;;;;;;4984718;28;20448;-65
2023/04/24 11:45:12;;;;;;;12.35;2.80;;;9.30;99.90;;;;;;4988157;28;19922;-65
2023/04/24 11:47:38;;;;;;;16.90;3.53;;;9.30;99.90;;;;;;5003449;28;20045;-65
2023/04/24 11:50:07;;;;;;;16.13;3.85;;;9.20;99.90;;;;;;5002397;28;20080;-79
2023/04/24 11:52:37;;;;;;;10.68;2.80;;;9.30;99.90;;;;;;5004349;28;20384;-64
2023/04/24 11:55:03;;;;;;;12.65;3.40;;;9.40;99.90;;;;;;5008585;28;20403;-65
2023/04/24 11:57:33;;;;;;;7.43;2.80;;;9.50;99.90;;;;;;5008695;28;20112;-64
2023/04/24 12:00:04;;;;;;;11.75;3.35;;;9.60;99.90;;;;;;5008781;28;20431;-64
2023/04/24 12:02:30;;;;;;;10.30;2.50;;;9.70;99.90;;;;;;5002885;28;20077;-65
2023/04/24 12:04:57;;;;;;;10.70;2.78;;;9.70;99.90;;;;;;5008860;28;20097;-64
2023/04/24 12:07:24;;;;;;;9.15;2.30;;;9.80;99.90;;;;;;5009473;28;20042;-64
2023/04/24 12:09:57;;;;;;;6.40;2.00;;;9.90;99.90;;;;;;5007840;28;20053;-74
2023/04/24 12:12:28;;;;;;;11.98;2.20;;;10.00;99.90;;;;;;5009466;28;20089;-65
2023/04/24 12:14:58;;;;;;;8.40;2.33;;;10.10;99.90;;;;;;5008153;28;20050;-65
2023/04/24 12:17:31;;;;;;;14.10;2.50;;;10.10;99.30;;;;;;5008142;28;20061;-72
2023/04/24 12:20:03;;;;;;;6.63;1.88;;;10.10;99.90;;;;;;5008425;28;20089;-66
2023/04/24 12:22:44;;;;;;;30.25;2.88;;;10.10;98.70;;;;;;5007771;28;20503;-66
2023/04/24 12:25:11;;;;;;;9.00;2.67;;;10.10;98.20;;;;;;5009074;28;20100;-65
2023/04/24 12:27:36;;;;;;;8.88;2.30;;;10.00;96.40;;;;;;5007898;28;20077;-66
2023/04/24 12:30:05;;;;;;;6.10;1.60;;;10.00;96.90;;;;;;5007576;28;20159;-66
2023/04/24 12:32:31;;;;;;;9.20;1.80;;;10.00;94.00;;;;;;5008375;28;20408;-66
2023/04/24 12:34:57;;;;;;;6.28;1.58;;;10.00;95.50;;;;;;5007355;28;20042;-65
2023/04/24 12:37:25;;;;;;;8.02;1.55;;;10.00;92.80;;;;;;5008672;28;20165;-64
2023/04/24 12:40:01;;;;;;;11.82;1.63;;;9.90;94.90;;;;;;4990298;28;20453;-65
2023/04/24 12:42:28;;;;;;;7.07;1.73;;;9.90;97.50;;;;;;5008869;28;20042;-69
2023/04/24 12:45:03;;;;;;;4.70;1.40;;;9.90;96.10;;;;;;5006382;28;20475;-65
2023/04/24 12:47:30;;;;;;;9.00;1.70;;;9.80;95.60;;;;;;5007341;28;20072;-65
2023/04/24 12:49:56;;;;;;;9.15;1.60;;;9.70;96.90;;;;;;5007992;28;20046;-65